sensor_id;sensor_type;location;lat;lon;timestamp;temperature;humidity
8340;DHT22;4207;49.314;7.162;2023-05-19T00:01:56;9.30;99.90
8340;DHT22;4207;49.314;7.162;2023-05-19T00:04:26;9.30;99.90
8340;DHT22;4207;49.314;7.162;2023-05-19T00:06:55;9.30;99.90
8340;DHT22;4207;49.314;7.162;2023-05-19T00:09:25;9.20;99.90
8340;DHT22;4207;49.314;7.162;2023-05-19T00:11:53;9.20;99.90
8340;DHT22;4207;49.314;7.162;2023-05-19T00:14:22;9.10;99.90
8340;DHT22;4207;49.314;7.162;2023-05-19T00:16:51;9.10;99.90
8340;DHT22;4207;49.314;7.162;2023-05-19T00:19:23;9.00;99.90
8340;DHT22;4207;49.314;7.162;2023-05-19T00:21:52;8.90;99.90
8340;DHT22;4207;49.314;7.162;2023-05-19T00:24:20;8.90;99.90
8340;DHT22;4207;49.314;7.162;2023-05-19T00:26:48;8.80;99.90
8340;DHT22;4207;49.314;7.162;2023-05-19T00:29:16;8.70;99.90
8340;DHT22;4207;49.314;7.162;2023-05-19T00:31:45;8.70;99.90
8340;DHT22;4207;49.314;7.162;2023-05-19T00:34:13;8.60;99.90
8340;DHT22;4207;49.314;7.162;2023-05-19T00:36:43;8.60;99.90
8340;DHT22;4207;49.314;7.162;2023-05-19T00:39:13;8.50;99.90
8340;DHT22;4207;49.314;7.162;2023-05-19T00:41:41;8.50;99.90
8340;DHT22;4207;49.314;7.162;2023-05-19T00:44:09;8.50;99.90
8340;DHT22;4207;49.314;7.162;2023-05-19T00:46:37;8.40;99.90
8340;DHT22;4207;49.314;7.162;2023-05-19T00:49:05;8.40;99.90
8340;DHT22;4207;49.314;7.162;2023-05-19T00:51:33;8.30;99.90
8340;DHT22;4207;49.314;7.162;2023-05-19T00:54:04;8.30;99.90
8340;DHT22;4207;49.314;7.162;2023-05-19T00:56:32;8.20;99.90
8340;DHT22;4207;49.314;7.162;2023-05-19T00:59:00;8.20;99.90
8340;DHT22;4207;49.314;7.162;2023-05-19T01:04:32;8.20;99.90
8340;DHT22;4207;49.314;7.162;2023-05-19T01:07:05;8.20;99.90
8340;DHT22;4207;49.314;7.162;2023-05-19T01:09:38;8.10;99.90
8340;DHT22;4207;49.314;7.162;2023-05-19T01:12:07;8.10;99.90
8340;DHT22;4207;49.314;7.162;2023-05-19T01:14:36;8.10;99.90
8340;DHT22;4207;49.314;7.162;2023-05-19T01:17:08;8.10;99.90
8340;DHT22;4207;49.314;7.162;2023-05-19T01:19:51;8.10;99.90
8340;DHT22;4207;49.314;7.162;2023-05-19T01:22:37;8.10;99.90
8340;DHT22;4207;49.314;7.162;2023-05-19T01:28:30;8.20;99.90
8340;DHT22;4207;49.314;7.162;2023-05-19T01:31:06;8.20;99.90
8340;DHT22;4207;49.314;7.162;2023-05-19T01:33:39;8.20;99.90
8340;DHT22;4207;49.314;7.162;2023-05-19T01:36:08;8.20;99.90
8340;DHT22;4207;49.314;7.162;2023-05-19T01:38:38;8.20;99.90
8340;DHT22;4207;49.314;7.162;2023-05-19T01:41:07;8.20;99.90
8340;DHT22;4207;49.314;7.162;2023-05-19T01:43:36;8.30;99.90
8340;DHT22;4207;49.314;7.162;2023-05-19T01:46:07;8.30;99.90
8340;DHT22;4207;49.314;7.162;2023-05-19T01:48:36;8.30;99.90
8340;DHT22;4207;49.314;7.162;2023-05-19T01:51:04;8.30;99.90
8340;DHT22;4207;49.314;7.162;2023-05-19T01:53:32;8.30;99.90
8340;DHT22;4207;49.314;7.162;2023-05-19T01:56:00;8.30;99.90
8340;DHT22;4207;49.314;7.162;2023-05-19T01:58:35;8.30;99.90
8340;DHT22;4207;49.314;7.162;2023-05-19T02:01:12;8.30;99.90
8340;DHT22;4207;49.314;7.162;2023-05-19T02:06:41;8.30;99.90
8340;DHT22;4207;49.314;7.162;2023-05-19T02:09:16;8.30;99.90
8340;DHT22;4207;49.314;7.162;2023-05-19T02:11:51;8.30;99.90
8340;DHT22;4207;49.314;7.162;2023-05-19T02:14:32;8.40;99.90
8340;DHT22;4207;49.314;7.162;2023-05-19T02:17:04;8.50;99.90
8340;DHT22;4207;49.314;7.162;2023-05-19T02:19:34;8.30;99.90
8340;DHT22;4207;49.314;7.162;2023-05-19T02:22:03;8.40;99.90
8340;DHT22;4207;49.314;7.162;2023-05-19T02:24:31;8.40;99.90
8340;DHT22;4207;49.314;7.162;2023-05-19T02:26:59;8.30;99.90
8340;DHT22;4207;49.314;7.162;2023-05-19T02:29:28;8.40;99.90
8340;DHT22;4207;49.314;7.162;2023-05-19T02:31:57;8.50;99.90
8340;DHT22;4207;49.314;7.162;2023-05-19T02:34:27;8.50;99.90
8340;DHT22;4207;49.314;7.162;2023-05-19T02:36:55;8.40;99.90
8340;DHT22;4207;49.314;7.162;2023-05-19T02:39:23;8.30;99.90
8340;DHT22;4207;49.314;7.162;2023-05-19T02:41:52;8.30;99.90
8340;DHT22;4207;49.314;7.162;2023-05-19T02:44:20;8.40;99.90
8340;DHT22;4207;49.314;7.162;2023-05-19T02:46:48;8.30;99.90
8340;DHT22;4207;49.314;7.162;2023-05-19T02:49:17;8.30;99.90
8340;DHT22;4207;49.314;7.162;2023-05-19T02:51:46;8.20;99.90
8340;DHT22;4207;49.314;7.162;2023-05-19T02:54:14;8.20;99.90
8340;DHT22;4207;49.314;7.162;2023-05-19T02:56:42;8.20;99.90
8340;DHT22;4207;49.314;7.162;2023-05-19T02:59:10;8.20;99.90
8340;DHT22;4207;49.314;7.162;2023-05-19T03:01:39;8.10;99.90
8340;DHT22;4207;49.314;7.162;2023-05-19T03:04:07;8.10;99.90
8340;DHT22;4207;49.314;7.162;2023-05-19T03:06:35;8.00;99.90
8340;DHT22;4207;49.314;7.162;2023-05-19T03:09:05;7.90;99.90
8340;DHT22;4207;49.314;7.162;2023-05-19T03:11:34;7.90;99.90
8340;DHT22;4207;49.314;7.162;2023-05-19T03:14:02;7.80;99.90
8340;DHT22;4207;49.314;7.162;2023-05-19T03:16:31;7.80;99.90
8340;DHT22;4207;49.314;7.162;2023-05-19T03:19:00;7.70;99.90
8340;DHT22;4207;49.314;7.162;2023-05-19T03:21:28;7.70;99.90
8340;DHT22;4207;49.314;7.162;2023-05-19T03:23:57;7.70;99.90
8340;DHT22;4207;49.314;7.162;2023-05-19T03:26:27;7.90;99.90
8340;DHT22;4207;49.314;7.162;2023-05-19T03:28:56;7.60;99.90
8340;DHT22;4207;49.314;7.162;2023-05-19T03:31:24;7.60;99.90
8340;DHT22;4207;49.314;7.162;2023-05-19T03:33:53;7.60;99.90
8340;DHT22;4207;49.314;7.162;2023-05-19T03:36:23;7.60;99.90
8340;DHT22;4207;49.314;7.162;2023-05-19T03:38:52;7.50;99.90
8340;DHT22;4207;49.314;7.162;2023-05-19T03:41:20;7.60;99.90
8340;DHT22;4207;49.314;7.162;2023-05-19T03:43:50;7.60;99.90
8340;DHT22;4207;49.314;7.162;2023-05-19T03:46:18;7.60;99.90
8340;DHT22;4207;49.314;7.162;2023-05-19T03:48:46;7.60;99.90
8340;DHT22;4207;49.314;7.162;2023-05-19T03:51:49;7.60;99.90
8340;DHT22;4207;49.314;7.162;2023-05-19T03:54:26;7.50;99.90
8340;DHT22;4207;49.314;7.162;2023-05-19T03:56:55;7.50;99.90
8340;DHT22;4207;49.314;7.162;2023-05-19T03:59:25;7.50;99.90
8340;DHT22;4207;49.314;7.162;2023-05-19T04:01:53;7.50;99.90
8340;DHT22;4207;49.314;7.162;2023-05-19T04:04:25;7.70;99.90
8340;DHT22;4207;49.314;7.162;2023-05-19T04:06:54;7.50;99.90
8340;DHT22;4207;49.314;7.162;2023-05-19T04:09:24;7.50;99.90
8340;DHT22;4207;49.314;7.162;2023-05-19T04:11:54;7.50;99.90
8340;DHT22;4207;49.314;7.162;2023-05-19T04:14:24;7.60;99.90
8340;DHT22;4207;49.314;7.162;2023-05-19T04:16:53;7.60;99.90
8340;DHT22;4207;49.314;7.162;2023-05-19T04:19:21;7.60;99.90
8340;DHT22;4207;49.314;7.162;2023-05-19T04:21:50;7.70;99.90
8340;DHT22;4207;49.314;7.162;2023-05-19T04:24:18;7.70;99.90
8340;DHT22;4207;49.314;7.162;2023-05-19T04:26:46;7.70;99.90
8340;DHT22;4207;49.314;7.162;2023-05-19T04:29:16;7.80;99.90
8340;DHT22;4207;49.314;7.162;2023-05-19T04:31:46;7.80;99.90
8340;DHT22;4207;49.314;7.162;2023-05-19T04:34:14;7.80;99.90
8340;DHT22;4207;49.314;7.162;2023-05-19T04:36:45;7.80;99.90
8340;DHT22;4207;49.314;7.162;2023-05-19T04:39:15;7.80;99.90
8340;DHT22;4207;49.314;7.162;2023-05-19T04:41:45;7.80;99.90
8340;DHT22;4207;49.314;7.162;2023-05-19T04:44:13;7.90;99.90
8340;DHT22;4207;49.314;7.162;2023-05-19T04:46:48;7.90;99.90
8340;DHT22;4207;49.314;7.162;2023-05-19T04:49:21;8.00;99.90
8340;DHT22;4207;49.314;7.162;2023-05-19T04:51:50;8.10;99.90
8340;DHT22;4207;49.314;7.162;2023-05-19T04:54:24;8.10;99.90
8340;DHT22;4207;49.314;7.162;2023-05-19T04:56:54;8.20;99.90
8340;DHT22;4207;49.314;7.162;2023-05-19T04:59:25;8.30;99.90
8340;DHT22;4207;49.314;7.162;2023-05-19T05:01:54;8.30;99.90
8340;DHT22;4207;49.314;7.162;2023-05-19T05:04:25;8.40;99.90
8340;DHT22;4207;49.314;7.162;2023-05-19T05:06:54;8.50;99.90
8340;DHT22;4207;49.314;7.162;2023-05-19T05:09:23;8.70;99.90
8340;DHT22;4207;49.314;7.162;2023-05-19T05:11:53;8.90;99.90
8340;DHT22;4207;49.314;7.162;2023-05-19T05:14:21;8.80;99.90
8340;DHT22;4207;49.314;7.162;2023-05-19T05:16:51;9.00;99.90
8340;DHT22;4207;49.314;7.162;2023-05-19T05:19:24;9.10;99.90
8340;DHT22;4207;49.314;7.162;2023-05-19T05:21:53;9.10;99.90
8340;DHT22;4207;49.314;7.162;2023-05-19T05:24:22;9.20;99.90
8340;DHT22;4207;49.314;7.162;2023-05-19T05:26:57;9.30;99.90
8340;DHT22;4207;49.314;7.162;2023-05-19T05:29:25;9.50;99.90
8340;DHT22;4207;49.314;7.162;2023-05-19T05:31:54;9.60;99.90
8340;DHT22;4207;49.314;7.162;2023-05-19T05:34:26;9.60;99.90
8340;DHT22;4207;49.314;7.162;2023-05-19T05:36:54;10.30;99.90
8340;DHT22;4207;49.314;7.162;2023-05-19T05:39:22;9.70;99.90
8340;DHT22;4207;49.314;7.162;2023-05-19T05:41:50;9.80;99.90
8340;DHT22;4207;49.314;7.162;2023-05-19T05:44:19;9.90;99.90
8340;DHT22;4207;49.314;7.162;2023-05-19T05:46:48;9.90;99.90
8340;DHT22;4207;49.314;7.162;2023-05-19T05:49:17;10.00;99.90
8340;DHT22;4207;49.314;7.162;2023-05-19T05:51:48;10.00;99.90
8340;DHT22;4207;49.314;7.162;2023-05-19T05:54:37;10.20;99.90
8340;DHT22;4207;49.314;7.162;2023-05-19T05:57:06;10.20;99.90
8340;DHT22;4207;49.314;7.162;2023-05-19T05:59:35;10.30;99.90
8340;DHT22;4207;49.314;7.162;2023-05-19T06:02:03;10.40;99.90
8340;DHT22;4207;49.314;7.162;2023-05-19T06:04:33;10.50;99.90
8340;DHT22;4207;49.314;7.162;2023-05-19T06:07:04;10.60;99.90
8340;DHT22;4207;49.314;7.162;2023-05-19T06:09:36;10.70;99.90
8340;DHT22;4207;49.314;7.162;2023-05-19T06:12:06;10.90;99.90
8340;DHT22;4207;49.314;7.162;2023-05-19T06:14:40;10.80;99.90
8340;DHT22;4207;49.314;7.162;2023-05-19T06:17:08;10.90;99.90
8340;DHT22;4207;49.314;7.162;2023-05-19T06:19:36;10.90;99.90
8340;DHT22;4207;49.314;7.162;2023-05-19T06:22:06;10.90;99.90
8340;DHT22;4207;49.314;7.162;2023-05-19T06:24:34;10.90;99.90
8340;DHT22;4207;49.314;7.162;2023-05-19T06:27:07;11.00;99.90
8340;DHT22;4207;49.314;7.162;2023-05-19T06:29:36;11.00;99.90
8340;DHT22;4207;49.314;7.162;2023-05-19T06:32:06;11.00;99.90
8340;DHT22;4207;49.314;7.162;2023-05-19T06:34:34;11.00;99.90
8340;DHT22;4207;49.314;7.162;2023-05-19T06:37:05;11.10;99.90
8340;DHT22;4207;49.314;7.162;2023-05-19T06:39:33;11.10;99.90
8340;DHT22;4207;49.314;7.162;2023-05-19T06:42:03;11.40;99.90
8340;DHT22;4207;49.314;7.162;2023-05-19T06:44:54;11.40;99.90
8340;DHT22;4207;49.314;7.162;2023-05-19T06:47:23;11.50;99.90
8340;DHT22;4207;49.314;7.162;2023-05-19T06:49:51;11.50;99.90
8340;DHT22;4207;49.314;7.162;2023-05-19T06:52:31;11.60;99.90
8340;DHT22;4207;49.314;7.162;2023-05-19T06:55:00;11.60;99.90
8340;DHT22;4207;49.314;7.162;2023-05-19T06:57:30;11.60;99.90
8340;DHT22;4207;49.314;7.162;2023-05-19T07:00:03;11.90;99.90
8340;DHT22;4207;49.314;7.162;2023-05-19T07:02:32;11.70;99.90
8340;DHT22;4207;49.314;7.162;2023-05-19T07:05:05;11.80;99.90
8340;DHT22;4207;49.314;7.162;2023-05-19T07:07:36;11.90;99.90
8340;DHT22;4207;49.314;7.162;2023-05-19T07:10:08;12.00;99.90
8340;DHT22;4207;49.314;7.162;2023-05-19T07:12:37;12.10;99.90
8340;DHT22;4207;49.314;7.162;2023-05-19T07:15:06;12.20;99.90
8340;DHT22;4207;49.314;7.162;2023-05-19T07:17:36;12.30;99.90
8340;DHT22;4207;49.314;7.162;2023-05-19T07:20:05;12.30;99.90
8340;DHT22;4207;49.314;7.162;2023-05-19T07:22:37;12.40;99.90
8340;DHT22;4207;49.314;7.162;2023-05-19T07:25:07;12.40;99.90
8340;DHT22;4207;49.314;7.162;2023-05-19T07:27:35;12.40;99.90
8340;DHT22;4207;49.314;7.162;2023-05-19T07:30:04;12.40;99.90
8340;DHT22;4207;49.314;7.162;2023-05-19T07:32:32;12.50;99.90
8340;DHT22;4207;49.314;7.162;2023-05-19T07:35:01;12.60;99.90
8340;DHT22;4207;49.314;7.162;2023-05-19T07:37:29;12.60;99.90
8340;DHT22;4207;49.314;7.162;2023-05-19T07:39:59;12.60;99.90
8340;DHT22;4207;49.314;7.162;2023-05-19T07:42:27;12.60;99.90
8340;DHT22;4207;49.314;7.162;2023-05-19T07:44:55;12.70;99.90
8340;DHT22;4207;49.314;7.162;2023-05-19T07:47:23;12.70;99.90
8340;DHT22;4207;49.314;7.162;2023-05-19T07:49:51;12.70;99.90
8340;DHT22;4207;49.314;7.162;2023-05-19T07:52:20;12.70;99.90
8340;DHT22;4207;49.314;7.162;2023-05-19T07:54:50;12.80;99.90
8340;DHT22;4207;49.314;7.162;2023-05-19T07:57:20;12.90;99.90
8340;DHT22;4207;49.314;7.162;2023-05-19T07:59:48;13.00;99.90
8340;DHT22;4207;49.314;7.162;2023-05-19T08:02:18;13.00;99.90
8340;DHT22;4207;49.314;7.162;2023-05-19T08:04:46;13.00;99.90
8340;DHT22;4207;49.314;7.162;2023-05-19T08:07:16;13.00;99.90
8340;DHT22;4207;49.314;7.162;2023-05-19T08:09:44;13.00;99.90
8340;DHT22;4207;49.314;7.162;2023-05-19T08:12:12;13.10;99.80
8340;DHT22;4207;49.314;7.162;2023-05-19T08:14:42;13.10;99.90
8340;DHT22;4207;49.314;7.162;2023-05-19T08:17:10;13.20;99.90
8340;DHT22;4207;49.314;7.162;2023-05-19T08:19:38;13.30;99.90
8340;DHT22;4207;49.314;7.162;2023-05-19T08:22:06;13.40;99.90
8340;DHT22;4207;49.314;7.162;2023-05-19T08:24:34;13.50;99.60
8340;DHT22;4207;49.314;7.162;2023-05-19T08:27:03;13.60;99.90
8340;DHT22;4207;49.314;7.162;2023-05-19T08:29:31;13.60;99.90
8340;DHT22;4207;49.314;7.162;2023-05-19T08:32:01;13.70;99.90
8340;DHT22;4207;49.314;7.162;2023-05-19T08:34:29;13.80;99.90
8340;DHT22;4207;49.314;7.162;2023-05-19T08:36:57;13.80;99.30
8340;DHT22;4207;49.314;7.162;2023-05-19T08:39:26;13.90;99.60
8340;DHT22;4207;49.314;7.162;2023-05-19T08:41:54;14.00;99.10
8340;DHT22;4207;49.314;7.162;2023-05-19T08:44:23;14.00;99.50
8340;DHT22;4207;49.314;7.162;2023-05-19T08:46:53;14.10;99.90
8340;DHT22;4207;49.314;7.162;2023-05-19T08:49:26;14.20;99.90
8340;DHT22;4207;49.314;7.162;2023-05-19T08:51:59;14.20;99.50
8340;DHT22;4207;49.314;7.162;2023-05-19T08:54:33;14.30;99.50
8340;DHT22;4207;49.314;7.162;2023-05-19T08:57:06;14.30;98.40
8340;DHT22;4207;49.314;7.162;2023-05-19T08:59:35;14.30;99.10
8340;DHT22;4207;49.314;7.162;2023-05-19T09:02:04;14.30;99.40
8340;DHT22;4207;49.314;7.162;2023-05-19T09:04:34;14.30;98.10
8340;DHT22;4207;49.314;7.162;2023-05-19T09:07:03;14.50;98.60
8340;DHT22;4207;49.314;7.162;2023-05-19T09:09:31;14.40;97.80
8340;DHT22;4207;49.314;7.162;2023-05-19T09:12:00;14.40;96.10
8340;DHT22;4207;49.314;7.162;2023-05-19T09:14:28;14.50;94.70
8340;DHT22;4207;49.314;7.162;2023-05-19T09:16:56;14.50;95.70
8340;DHT22;4207;49.314;7.162;2023-05-19T09:19:27;14.50;96.70
8340;DHT22;4207;49.314;7.162;2023-05-19T09:22:01;14.80;96.60
8340;DHT22;4207;49.314;7.162;2023-05-19T09:24:30;14.80;96.40
8340;DHT22;4207;49.314;7.162;2023-05-19T09:27:00;14.70;94.90
8340;DHT22;4207;49.314;7.162;2023-05-19T09:29:29;14.70;95.30
8340;DHT22;4207;49.314;7.162;2023-05-19T09:31:57;14.70;96.40
8340;DHT22;4207;49.314;7.162;2023-05-19T09:34:27;14.80;96.50
8340;DHT22;4207;49.314;7.162;2023-05-19T09:36:55;14.80;96.80
8340;DHT22;4207;49.314;7.162;2023-05-19T09:39:27;14.80;96.50
8340;DHT22;4207;49.314;7.162;2023-05-19T09:41:55;14.90;96.90
8340;DHT22;4207;49.314;7.162;2023-05-19T09:44:25;15.00;97.10
8340;DHT22;4207;49.314;7.162;2023-05-19T09:46:56;15.10;96.60
8340;DHT22;4207;49.314;7.162;2023-05-19T09:49:26;15.10;96.60
8340;DHT22;4207;49.314;7.162;2023-05-19T09:51:56;15.20;97.30
8340;DHT22;4207;49.314;7.162;2023-05-19T09:54:26;15.20;96.80
8340;DHT22;4207;49.314;7.162;2023-05-19T09:56:56;15.30;97.40
8340;DHT22;4207;49.314;7.162;2023-05-19T09:59:26;15.30;96.90
8340;DHT22;4207;49.314;7.162;2023-05-19T10:02:00;15.40;96.20
8340;DHT22;4207;49.314;7.162;2023-05-19T10:04:29;15.50;95.20
8340;DHT22;4207;49.314;7.162;2023-05-19T10:06:58;15.40;96.20
8340;DHT22;4207;49.314;7.162;2023-05-19T10:09:28;15.60;96.50
8340;DHT22;4207;49.314;7.162;2023-05-19T10:11:57;15.80;95.20
8340;DHT22;4207;49.314;7.162;2023-05-19T10:14:27;15.60;94.10
8340;DHT22;4207;49.314;7.162;2023-05-19T10:16:57;15.60;94.90
8340;DHT22;4207;49.314;7.162;2023-05-19T10:19:26;15.60;94.30
8340;DHT22;4207;49.314;7.162;2023-05-19T10:21:55;15.60;94.40
8340;DHT22;4207;49.314;7.162;2023-05-19T10:24:23;15.60;93.50
8340;DHT22;4207;49.314;7.162;2023-05-19T10:26:57;15.60;93.90
8340;DHT22;4207;49.314;7.162;2023-05-19T10:29:28;15.60;93.00
8340;DHT22;4207;49.314;7.162;2023-05-19T10:32:01;15.70;92.60
8340;DHT22;4207;49.314;7.162;2023-05-19T10:34:54;15.80;93.30
8340;DHT22;4207;49.314;7.162;2023-05-19T10:37:45;15.90;93.20
8340;DHT22;4207;49.314;7.162;2023-05-19T10:40:23;16.10;92.90
8340;DHT22;4207;49.314;7.162;2023-05-19T10:43:08;16.20;93.00
8340;DHT22;4207;49.314;7.162;2023-05-19T10:45:44;16.20;92.10
8340;DHT22;4207;49.314;7.162;2023-05-19T10:48:14;16.30;92.10
8340;DHT22;4207;49.314;7.162;2023-05-19T10:50:45;16.30;92.90
8340;DHT22;4207;49.314;7.162;2023-05-19T10:53:17;16.30;92.10
8340;DHT22;4207;49.314;7.162;2023-05-19T10:55:53;16.20;93.20
8340;DHT22;4207;49.314;7.162;2023-05-19T10:58:54;16.30;93.20
8340;DHT22;4207;49.314;7.162;2023-05-19T11:01:29;16.40;92.60
8340;DHT22;4207;49.314;7.162;2023-05-19T11:04:03;16.50;91.40
8340;DHT22;4207;49.314;7.162;2023-05-19T11:06:33;16.50;92.30
8340;DHT22;4207;49.314;7.162;2023-05-19T11:09:11;16.40;90.00
8340;DHT22;4207;49.314;7.162;2023-05-19T11:11:47;16.50;91.50
8340;DHT22;4207;49.314;7.162;2023-05-19T11:14:19;16.40;90.80
8340;DHT22;4207;49.314;7.162;2023-05-19T11:16:50;16.50;92.50
8340;DHT22;4207;49.314;7.162;2023-05-19T11:19:19;16.60;90.60
8340;DHT22;4207;49.314;7.162;2023-05-19T11:21:53;16.60;90.20
8340;DHT22;4207;49.314;7.162;2023-05-19T11:24:38;16.60;91.20
8340;DHT22;4207;49.314;7.162;2023-05-19T11:27:20;16.70;91.00
8340;DHT22;4207;49.314;7.162;2023-05-19T11:29:56;16.70;88.40
8340;DHT22;4207;49.314;7.162;2023-05-19T11:32:26;16.70;90.50
8340;DHT22;4207;49.314;7.162;2023-05-19T11:34:55;16.80;90.30
8340;DHT22;4207;49.314;7.162;2023-05-19T11:37:27;16.80;89.30
8340;DHT22;4207;49.314;7.162;2023-05-19T11:40:00;16.80;89.00
8340;DHT22;4207;49.314;7.162;2023-05-19T11:42:30;16.80;88.20
8340;DHT22;4207;49.314;7.162;2023-05-19T11:45:01;16.90;90.00
8340;DHT22;4207;49.314;7.162;2023-05-19T11:47:30;16.90;87.70
8340;DHT22;4207;49.314;7.162;2023-05-19T11:50:17;16.90;87.40
8340;DHT22;4207;49.314;7.162;2023-05-19T11:52:46;17.00;87.10
8340;DHT22;4207;49.314;7.162;2023-05-19T11:55:15;17.00;89.60
8340;DHT22;4207;49.314;7.162;2023-05-19T11:57:50;17.00;87.50
8340;DHT22;4207;49.314;7.162;2023-05-19T12:00:38;17.00;89.30
8340;DHT22;4207;49.314;7.162;2023-05-19T12:03:07;17.00;88.60
8340;DHT22;4207;49.314;7.162;2023-05-19T12:05:37;17.20;88.20
8340;DHT22;4207;49.314;7.162;2023-05-19T12:08:09;17.20;87.20
8340;DHT22;4207;49.314;7.162;2023-05-19T12:10:38;17.30;88.90
8340;DHT22;4207;49.314;7.162;2023-05-19T12:13:07;17.30;86.80
8340;DHT22;4207;49.314;7.162;2023-05-19T12:15:38;17.30;83.50
8340;DHT22;4207;49.314;7.162;2023-05-19T12:18:06;17.30;86.30
8340;DHT22;4207;49.314;7.162;2023-05-19T12:20:35;17.20;82.40
8340;DHT22;4207;49.314;7.162;2023-05-19T12:23:04;17.20;83.50
8340;DHT22;4207;49.314;7.162;2023-05-19T12:25:32;17.10;83.20
8340;DHT22;4207;49.314;7.162;2023-05-19T12:28:01;17.30;86.40
8340;DHT22;4207;49.314;7.162;2023-05-19T12:30:31;17.20;86.60
8340;DHT22;4207;49.314;7.162;2023-05-19T12:33:03;17.40;86.00
8340;DHT22;4207;49.314;7.162;2023-05-19T12:35:32;17.60;86.70
8340;DHT22;4207;49.314;7.162;2023-05-19T12:38:03;17.60;86.10
8340;DHT22;4207;49.314;7.162;2023-05-19T12:40:35;17.50;82.30
8340;DHT22;4207;49.314;7.162;2023-05-19T12:43:05;17.50;84.00
8340;DHT22;4207;49.314;7.162;2023-05-19T12:45:35;17.60;83.60
8340;DHT22;4207;49.314;7.162;2023-05-19T12:48:13;17.60;83.50
8340;DHT22;4207;49.314;7.162;2023-05-19T12:50:43;17.60;84.70
8340;DHT22;4207;49.314;7.162;2023-05-19T12:53:11;17.70;85.40
8340;DHT22;4207;49.314;7.162;2023-05-19T12:55:41;17.90;86.90
8340;DHT22;4207;49.314;7.162;2023-05-19T12:58:09;18.00;84.50
8340;DHT22;4207;49.314;7.162;2023-05-19T13:00:42;18.10;85.00
8340;DHT22;4207;49.314;7.162;2023-05-19T13:03:16;18.10;82.20
8340;DHT22;4207;49.314;7.162;2023-05-19T13:05:45;18.10;84.30
8340;DHT22;4207;49.314;7.162;2023-05-19T13:08:15;18.20;82.00
8340;DHT22;4207;49.314;7.162;2023-05-19T13:10:47;18.30;82.90
8340;DHT22;4207;49.314;7.162;2023-05-19T13:13:16;18.40;83.30
8340;DHT22;4207;49.314;7.162;2023-05-19T13:15:46;18.40;82.00
8340;DHT22;4207;49.314;7.162;2023-05-19T13:18:17;18.50;81.10
8340;DHT22;4207;49.314;7.162;2023-05-19T13:20:48;18.50;82.10
8340;DHT22;4207;49.314;7.162;2023-05-19T13:23:18;18.60;80.50
8340;DHT22;4207;49.314;7.162;2023-05-19T13:25:46;18.70;78.40
8340;DHT22;4207;49.314;7.162;2023-05-19T13:28:16;18.80;78.50
8340;DHT22;4207;49.314;7.162;2023-05-19T13:30:44;18.90;78.30
8340;DHT22;4207;49.314;7.162;2023-05-19T13:33:13;19.00;79.60
8340;DHT22;4207;49.314;7.162;2023-05-19T13:35:43;19.10;80.70
8340;DHT22;4207;49.314;7.162;2023-05-19T13:38:11;19.10;78.30
8340;DHT22;4207;49.314;7.162;2023-05-19T13:40:40;19.20;77.80
8340;DHT22;4207;49.314;7.162;2023-05-19T13:43:10;19.30;78.80
8340;DHT22;4207;49.314;7.162;2023-05-19T13:45:40;19.30;77.20
8340;DHT22;4207;49.314;7.162;2023-05-19T13:48:10;19.40;79.10
8340;DHT22;4207;49.314;7.162;2023-05-19T13:50:39;19.60;79.40
8340;DHT22;4207;49.314;7.162;2023-05-19T13:53:08;19.70;77.90
8340;DHT22;4207;49.314;7.162;2023-05-19T13:55:40;19.80;76.70
8340;DHT22;4207;49.314;7.162;2023-05-19T13:58:11;19.90;77.10
8340;DHT22;4207;49.314;7.162;2023-05-19T14:00:40;20.00;75.70
8340;DHT22;4207;49.314;7.162;2023-05-19T14:03:09;20.10;77.60
8340;DHT22;4207;49.314;7.162;2023-05-19T14:05:38;20.00;75.40
8340;DHT22;4207;49.314;7.162;2023-05-19T14:08:08;19.90;74.80
8340;DHT22;4207;49.314;7.162;2023-05-19T14:10:37;19.70;77.30
8340;DHT22;4207;49.314;7.162;2023-05-19T14:13:05;19.70;77.00
8340;DHT22;4207;49.314;7.162;2023-05-19T14:15:38;19.70;77.50
8340;DHT22;4207;49.314;7.162;2023-05-19T14:18:07;19.80;76.70
8340;DHT22;4207;49.314;7.162;2023-05-19T14:20:35;19.80;75.40
8340;DHT22;4207;49.314;7.162;2023-05-19T14:23:03;19.70;75.60
8340;DHT22;4207;49.314;7.162;2023-05-19T14:25:35;19.60;75.50
8340;DHT22;4207;49.314;7.162;2023-05-19T14:28:06;19.60;75.00
8340;DHT22;4207;49.314;7.162;2023-05-19T14:30:39;19.50;72.70
8340;DHT22;4207;49.314;7.162;2023-05-19T14:33:08;19.40;74.10
8340;DHT22;4207;49.314;7.162;2023-05-19T14:35:37;19.30;72.20
8340;DHT22;4207;49.314;7.162;2023-05-19T14:38:05;19.20;75.80
8340;DHT22;4207;49.314;7.162;2023-05-19T14:40:36;19.10;73.30
8340;DHT22;4207;49.314;7.162;2023-05-19T14:43:07;19.10;74.70
8340;DHT22;4207;49.314;7.162;2023-05-19T14:45:36;19.10;75.70
8340;DHT22;4207;49.314;7.162;2023-05-19T14:48:04;19.10;74.30
8340;DHT22;4207;49.314;7.162;2023-05-19T14:50:33;19.10;76.20
8340;DHT22;4207;49.314;7.162;2023-05-19T14:53:01;19.10;75.70
8340;DHT22;4207;49.314;7.162;2023-05-19T14:55:36;19.10;76.30
8340;DHT22;4207;49.314;7.162;2023-05-19T14:58:04;19.30;76.30
8340;DHT22;4207;49.314;7.162;2023-05-19T15:00:48;19.30;75.90
8340;DHT22;4207;49.314;7.162;2023-05-19T15:03:16;19.40;75.10
8340;DHT22;4207;49.314;7.162;2023-05-19T15:05:45;19.40;74.70
8340;DHT22;4207;49.314;7.162;2023-05-19T15:08:15;19.30;74.10
8340;DHT22;4207;49.314;7.162;2023-05-19T15:10:48;19.10;73.10
8340;DHT22;4207;49.314;7.162;2023-05-19T15:13:17;19.00;74.50
8340;DHT22;4207;49.314;7.162;2023-05-19T15:15:47;19.00;75.60
8340;DHT22;4207;49.314;7.162;2023-05-19T15:18:15;19.00;75.70
8340;DHT22;4207;49.314;7.162;2023-05-19T15:20:44;18.90;76.40
8340;DHT22;4207;49.314;7.162;2023-05-19T15:23:13;18.80;76.40
8340;DHT22;4207;49.314;7.162;2023-05-19T15:25:41;18.70;75.90
8340;DHT22;4207;49.314;7.162;2023-05-19T15:28:12;18.60;77.60
8340;DHT22;4207;49.314;7.162;2023-05-19T15:30:42;18.70;77.40
8340;DHT22;4207;49.314;7.162;2023-05-19T15:33:12;18.70;77.20
8340;DHT22;4207;49.314;7.162;2023-05-19T15:35:41;18.70;78.20
8340;DHT22;4207;49.314;7.162;2023-05-19T15:38:09;18.60;77.30
8340;DHT22;4207;49.314;7.162;2023-05-19T15:40:40;18.60;77.60
8340;DHT22;4207;49.314;7.162;2023-05-19T15:43:08;18.50;78.10
8340;DHT22;4207;49.314;7.162;2023-05-19T15:45:38;18.20;79.10
8340;DHT22;4207;49.314;7.162;2023-05-19T15:48:06;18.20;79.00
8340;DHT22;4207;49.314;7.162;2023-05-19T15:50:37;18.10;80.40
8340;DHT22;4207;49.314;7.162;2023-05-19T15:53:07;17.80;81.40
8340;DHT22;4207;49.314;7.162;2023-05-19T15:55:38;17.80;81.90
8340;DHT22;4207;49.314;7.162;2023-05-19T15:58:06;17.50;82.70
8340;DHT22;4207;49.314;7.162;2023-05-19T16:00:36;17.40;83.40
8340;DHT22;4207;49.314;7.162;2023-05-19T16:03:08;17.30;84.50
8340;DHT22;4207;49.314;7.162;2023-05-19T16:05:37;17.20;84.20
8340;DHT22;4207;49.314;7.162;2023-05-19T16:08:05;17.20;84.20
8340;DHT22;4207;49.314;7.162;2023-05-19T16:10:34;17.20;83.50
8340;DHT22;4207;49.314;7.162;2023-05-19T16:13:03;17.30;83.70
8340;DHT22;4207;49.314;7.162;2023-05-19T16:15:31;17.30;85.40
8340;DHT22;4207;49.314;7.162;2023-05-19T16:17:59;17.40;83.80
8340;DHT22;4207;49.314;7.162;2023-05-19T16:20:28;17.40;84.50
8340;DHT22;4207;49.314;7.162;2023-05-19T16:22:57;17.50;84.50
8340;DHT22;4207;49.314;7.162;2023-05-19T16:25:25;17.50;84.40
8340;DHT22;4207;49.314;7.162;2023-05-19T16:27:53;17.50;84.60
8340;DHT22;4207;49.314;7.162;2023-05-19T16:30:22;17.50;84.70
8340;DHT22;4207;49.314;7.162;2023-05-19T16:32:54;17.50;84.90
8340;DHT22;4207;49.314;7.162;2023-05-19T16:35:23;17.40;85.00
8340;DHT22;4207;49.314;7.162;2023-05-19T16:37:54;17.40;86.10